KSTC

St Cloud Regional Airport

St Cloud, Minnesota, USA
METAR KSTC 190653Z AUTO 16005KT 10SM CLR M03/M04 A2967 RMK AO2 SLP066 T10331044
Observed Flight Rules
Jan-19 @ 06:53 UTC (18 minutes ago) Visual Flight Rules
Wind Visibility Clouds
160° at 5 knots 10 miles
  • Clear skies
Temperatures Readings
Current -3°C / 27°F
Dewpoint -4°C / 25°F
Humidity 93%
Altimeter 29.67" Hg
Pressure 1006.6 hPa
Elevation 314
METAR KSTC 190653Z AUTO 16005KT 10SM CLR M03/M04 A2967 RMK AO2 SLP066 T10331044
Observed Flight Rules
Jan-19 @ 06:53 UTC
(18 minutes ago)
VFR
Wind Visibility
160° at 5 knots 10 miles
Clouds
  • Clear skies
Temperature Dewpoint
-3°C / 27°F -4°C / 25°F
Humidity Altimeter Pressure
93% 29.67" Hg 1006.6 hPa